Time;durP1;ratioP1;P1;durP2;ratioP2;P2;SDS_P1;SDS_P2;PMS_P1;PMS_P2;Temp;Humidity;BMP_temperature;BMP_pressure;BME280_temperature;BME280_humidity;BME280_pressure;Samples;Min_cycle;Max_cycle;Signal;HPM_P1;HPM_P2
2023/12/09 00:00:40;;;;;;;98.38;21.00;;;6.40;99.90;;;;;;5120350;28;20083;-84
2023/12/09 00:03:08;;;;;;;103.13;22.02;;;6.40;99.90;;;;;;5095849;28;20036;-84
2023/12/09 00:05:35;;;;;;;97.18;21.20;;;7.40;99.90;;;;;;5102938;28;20131;-84
2023/12/09 00:08:02;;;;;;;96.38;20.15;;;7.10;99.90;;;;;;5080023;28;20045;-84
2023/12/09 00:10:29;;;;;;;89.97;20.60;;;6.40;99.90;;;;;;5103223;28;20370;-84
2023/12/09 00:12:55;;;;;;;84.30;21.35;;;6.40;99.90;;;;;;5098624;28;20039;-84
2023/12/09 00:15:22;;;;;;;95.82;20.67;;;6.30;99.90;;;;;;5102460;28;20029;-84
2023/12/09 00:17:48;;;;;;;83.10;19.63;;;6.40;99.90;;;;;;5108798;28;20036;-84
2023/12/09 00:20:15;;;;;;;82.75;19.95;;;6.40;99.90;;;;;;5087316;28;20032;-83
2023/12/09 00:22:42;;;;;;;103.22;20.35;;;6.60;99.90;;;;;;5106855;28;20055;-84
2023/12/09 00:25:09;;;;;;;102.50;20.75;;;6.70;99.90;;;;;;5112048;28;20040;-84
2023/12/09 00:27:36;;;;;;;99.50;20.92;;;7.20;99.90;;;;;;5110002;28;20392;-84
2023/12/09 00:30:04;;;;;;;103.10;20.88;;;6.40;99.90;;;;;;5098375;28;20044;-84
2023/12/09 00:32:30;;;;;;;95.28;19.27;;;6.50;99.90;;;;;;5069650;28;20041;-84
2023/12/09 00:34:57;;;;;;;78.53;19.55;;;6.50;99.90;;;;;;5095516;28;20047;-84
2023/12/09 00:37:24;;;;;;;81.00;19.38;;;6.50;99.90;;;;;;5107132;28;20032;-84
2023/12/09 00:39:50;;;;;;;94.57;20.13;;;7.70;99.90;;;;;;5107070;28;20515;-84
2023/12/09 00:42:17;;;;;;;121.25;21.90;;;7.70;99.90;;;;;;5103801;28;20032;-84
2023/12/09 00:44:43;;;;;;;75.50;19.08;;;7.00;99.90;;;;;;5102429;28;20098;-84
2023/12/09 00:47:10;;;;;;;84.20;19.65;;;6.60;99.90;;;;;;5100729;28;20091;-84
2023/12/09 00:49:37;;;;;;;84.70;19.05;;;6.60;99.90;;;;;;5091381;28;20041;-84
2023/12/09 00:52:03;;;;;;;80.60;18.58;;;6.60;99.90;;;;;;5076541;28;20037;-84
2023/12/09 00:54:30;;;;;;;98.93;20.02;;;6.60;99.90;;;;;;5091432;28;20123;-84
2023/12/09 00:56:57;;;;;;;78.70;18.40;;;6.80;99.90;;;;;;5098630;28;20505;-84
2023/12/09 00:59:23;;;;;;;77.20;19.10;;;6.60;99.90;;;;;;5105757;28;20028;-84
2023/12/09 01:01:50;;;;;;;83.65;18.95;;;6.60;99.90;;;;;;5105862;28;20128;-84
2023/12/09 01:04:17;;;;;;;74.18;18.60;;;7.20;99.90;;;;;;5089710;28;20040;-84
2023/12/09 01:06:43;;;;;;;82.20;18.15;;;7.20;99.90;;;;;;5088186;28;20505;-84
2023/12/09 01:09:10;;;;;;;75.68;18.80;;;6.70;99.90;;;;;;5102673;28;20051;-84
2023/12/09 01:11:37;;;;;;;80.40;17.85;;;6.70;99.90;;;;;;5077107;28;20041;-83
2023/12/09 01:14:06;;;;;;;76.78;18.80;;;7.50;99.90;;;;;;5075587;28;20033;-84
2023/12/09 01:16:33;;;;;;;78.40;19.23;;;6.60;99.90;;;;;;5089351;28;20819;-84
2023/12/09 01:19:00;;;;;;;88.38;19.67;;;6.70;99.90;;;;;;5082847;28;20037;-84
2023/12/09 01:21:26;;;;;;;84.20;18.60;;;6.80;99.90;;;;;;5083155;28;20059;-83
2023/12/09 01:23:53;;;;;;;73.30;16.95;;;6.80;99.90;;;;;;5089673;28;20040;-84
2023/12/09 01:26:20;;;;;;;74.95;18.85;;;6.70;99.90;;;;;;5089212;28;20047;-84
2023/12/09 01:28:46;;;;;;;82.13;18.08;;;6.70;99.90;;;;;;5085458;28;20123;-84
2023/12/09 01:31:13;;;;;;;78.80;18.27;;;6.70;99.90;;;;;;5088972;28;20037;-84
2023/12/09 01:33:39;;;;;;;73.63;19.15;;;6.80;99.90;;;;;;5089962;28;20047;-83
2023/12/09 01:36:06;;;;;;;92.47;18.73;;;7.20;99.90;;;;;;5078372;28;20041;-84
2023/12/09 01:38:33;;;;;;;84.15;19.10;;;6.70;99.90;;;;;;5092739;28;20458;-83
2023/12/09 01:40:59;;;;;;;94.38;18.73;;;6.70;99.90;;;;;;5079987;28;20041;-84
2023/12/09 01:43:26;;;;;;;71.07;16.90;;;7.20;99.90;;;;;;5092883;28;20390;-84
2023/12/09 01:46:03;;;;;;;86.32;18.33;;;6.80;99.90;;;;;;5092692;28;20036;-83
2023/12/09 01:48:30;;;;;;;76.38;18.17;;;6.80;99.90;;;;;;5104445;28;20145;-84
2023/12/09 01:50:56;;;;;;;82.72;18.85;;;7.70;99.90;;;;;;5094412;28;20051;-84
2023/12/09 01:53:23;;;;;;;74.25;17.20;;;6.80;99.90;;;;;;5092791;28;20029;-84
2023/12/09 01:55:50;;;;;;;76.20;18.92;;;6.80;99.90;;;;;;5093193;28;20401;-84
2023/12/09 01:58:18;;;;;;;77.85;18.95;;;6.80;99.90;;;;;;5092661;28;20052;-84
2023/12/09 02:00:45;;;;;;;78.30;17.25;;;6.80;99.90;;;;;;5099552;28;20048;-84
2023/12/09 02:03:12;;;;;;;60.45;17.45;;;6.80;99.90;;;;;;5105499;28;20089;-84
2023/12/09 02:05:40;;;;;;;82.20;18.42;;;6.80;99.90;;;;;;5102908;28;20485;-84
2023/12/09 02:08:07;;;;;;;83.70;17.38;;;7.30;99.90;;;;;;5098058;28;20071;-84
2023/12/09 02:10:33;;;;;;;73.68;19.42;;;6.80;99.90;;;;;;5105831;28;20048;-84
2023/12/09 02:13:23;;;;;;;53.88;17.55;;;6.90;99.90;;;;;;5092236;28;20047;-84
2023/12/09 02:16:04;;;;;;;76.32;17.92;;;6.80;99.90;;;;;;5099379;28;20033;-84
2023/12/09 02:18:31;;;;;;;66.40;16.90;;;6.90;99.90;;;;;;5092172;28;20448;-84
2023/12/09 02:20:57;;;;;;;77.18;17.00;;;6.80;99.90;;;;;;5092495;28;20117;-84
2023/12/09 02:23:24;;;;;;;79.60;18.90;;;7.30;99.90;;;;;;5092322;28;20129;-84
2023/12/09 02:25:54;;;;;;;70.40;18.13;;;7.00;99.90;;;;;;5103047;28;20040;-83
2023/12/09 02:28:27;;;;;;;65.20;16.98;;;6.80;99.90;;;;;;5091783;28;20048;-84
2023/12/09 02:31:03;;;;;;;73.05;18.20;;;6.90;99.90;;;;;;5104878;28;20423;-84
2023/12/09 02:33:31;;;;;;;68.25;17.55;;;6.90;99.90;;;;;;5106246;28;20089;-84
2023/12/09 02:36:01;;;;;;;73.35;18.25;;;7.10;99.90;;;;;;5092097;28;20040;-84
2023/12/09 02:38:29;;;;;;;75.05;16.80;;;6.90;99.90;;;;;;5091615;28;20048;-84
2023/12/09 02:40:57;;;;;;;71.75;17.45;;;6.80;99.90;;;;;;5104806;28;20036;-84
2023/12/09 02:43:23;;;;;;;57.40;16.77;;;6.80;99.90;;;;;;5091949;28;20060;-84
2023/12/09 02:45:50;;;;;;;69.53;19.10;;;7.50;99.90;;;;;;5087555;28;20249;-84
2023/12/09 02:48:16;;;;;;;69.65;17.90;;;7.90;99.90;;;;;;5088430;28;20122;-84
2023/12/09 02:50:43;;;;;;;60.20;16.05;;;6.90;99.90;;;;;;5075614;28;20098;-84
2023/12/09 02:53:10;;;;;;;78.07;17.70;;;7.10;99.90;;;;;;5085142;28;20072;-84
2023/12/09 02:55:36;;;;;;;47.30;16.30;;;6.90;99.90;;;;;;5091376;28;20661;-84
2023/12/09 02:58:03;;;;;;;58.40;16.50;;;7.00;99.90;;;;;;5092004;28;20064;-83
2023/12/09 03:00:29;;;;;;;56.53;17.10;;;7.70;99.90;;;;;;5091829;28;20029;-84
2023/12/09 03:02:56;;;;;;;58.90;16.20;;;6.90;99.90;;;;;;5096637;28;20033;-83
2023/12/09 03:05:22;;;;;;;73.80;16.95;;;6.90;99.90;;;;;;5098473;28;20040;-84
2023/12/09 03:07:49;;;;;;;63.58;16.92;;;6.90;99.90;;;;;;5095258;28;20040;-84
2023/12/09 03:10:16;;;;;;;59.80;16.73;;;6.90;99.90;;;;;;5091171;28;20036;-84
2023/12/09 03:12:42;;;;;;;68.05;17.65;;;6.90;99.90;;;;;;5090914;28;20401;-84
2023/12/09 03:15:09;;;;;;;72.97;16.55;;;6.90;99.90;;;;;;5091118;28;20048;-84
2023/12/09 03:17:36;;;;;;;62.60;18.05;;;6.90;99.90;;;;;;5100364;28;20051;-83
2023/12/09 03:20:03;;;;;;;60.38;15.80;;;6.90;99.90;;;;;;5095578;28;20044;-84
2023/12/09 03:22:30;;;;;;;51.05;16.65;;;6.90;99.90;;;;;;5091259;28;20048;-84
2023/12/09 03:24:56;;;;;;;67.97;17.13;;;6.90;99.90;;;;;;5077741;28;20047;-84
2023/12/09 03:27:23;;;;;;;60.35;16.13;;;7.40;99.90;;;;;;5101329;28;20044;-84
2023/12/09 03:29:49;;;;;;;57.65;16.30;;;6.90;99.90;;;;;;5104625;28;20459;-84
2023/12/09 03:32:16;;;;;;;63.95;18.13;;;7.10;99.90;;;;;;5091209;28;20044;-83
2023/12/09 03:34:44;;;;;;;59.97;16.42;;;6.90;99.90;;;;;;5092556;28;20032;-83
2023/12/09 03:37:11;;;;;;;57.03;15.90;;;7.90;99.90;;;;;;5107612;28;20045;-84
2023/12/09 03:39:38;;;;;;;62.92;16.75;;;6.90;99.90;;;;;;5077409;28;20119;-84
2023/12/09 03:42:05;;;;;;;48.25;16.70;;;6.90;99.90;;;;;;5091206;28;20105;-84
2023/12/09 03:44:31;;;;;;;54.33;15.93;;;6.90;99.90;;;;;;5107256;28;20515;-84
2023/12/09 03:46:58;;;;;;;57.72;16.98;;;6.90;99.90;;;;;;5090744;28;20045;-84
2023/12/09 03:49:25;;;;;;;53.65;16.30;;;6.90;99.90;;;;;;5122579;28;20115;-84
2023/12/09 03:51:51;;;;;;;56.15;16.35;;;7.40;99.90;;;;;;5095401;28;20507;-84
2023/12/09 03:54:18;;;;;;;54.72;14.93;;;6.90;99.90;;;;;;5110385;28;20097;-84
2023/12/09 03:56:44;;;;;;;56.92;15.45;;;7.00;99.90;;;;;;5091763;28;20044;-84
2023/12/09 03:59:11;;;;;;;56.63;15.75;;;7.30;99.90;;;;;;5105721;28;20515;-84
2023/12/09 04:01:49;;;;;;;62.92;15.50;;;6.90;99.90;;;;;;5080373;28;20044;-84
2023/12/09 04:04:16;;;;;;;58.72;15.60;;;6.90;99.90;;;;;;5095787;28;20104;-84
2023/12/09 04:06:43;;;;;;;52.50;14.80;;;6.90;99.90;;;;;;5091221;28;20420;-84
2023/12/09 04:09:10;;;;;;;56.67;14.80;;;6.90;99.90;;;;;;5090040;28;20049;-84
2023/12/09 04:11:37;;;;;;;55.30;16.05;;;7.10;99.90;;;;;;5106719;28;20082;-84
2023/12/09 04:14:06;;;;;;;53.92;13.07;;;6.90;99.90;;;;;;5090079;28;20695;-84
2023/12/09 04:16:33;;;;;;;52.95;15.60;;;7.70;99.90;;;;;;5085195;28;20481;-84
2023/12/09 04:18:59;;;;;;;46.67;14.25;;;7.00;99.90;;;;;;5085158;28;20166;-85
2023/12/09 04:21:26;;;;;;;45.63;13.40;;;7.40;99.90;;;;;;5099857;28;20047;-84
2023/12/09 04:23:53;;;;;;;49.25;13.40;;;7.00;99.90;;;;;;5090233;28;20090;-84
2023/12/09 04:26:19;;;;;;;49.80;13.70;;;6.90;99.90;;;;;;5103222;28;20054;-84
2023/12/09 04:28:46;;;;;;;40.67;12.98;;;7.30;99.90;;;;;;5089855;28;20098;-84
2023/12/09 04:31:13;;;;;;;49.25;13.38;;;6.90;99.90;;;;;;5087638;28;20033;-85
2023/12/09 04:33:40;;;;;;;42.72;13.80;;;6.90;99.90;;;;;;5079432;28;20036;-84
2023/12/09 04:36:07;;;;;;;44.13;12.43;;;6.90;99.90;;;;;;5100422;28;20119;-85
2023/12/09 04:38:34;;;;;;;44.72;13.40;;;6.90;99.90;;;;;;5087070;28;20037;-84
2023/12/09 04:41:01;;;;;;;46.90;12.73;;;6.90;99.90;;;;;;5086465;28;20094;-84
2023/12/09 04:43:28;;;;;;;56.85;12.90;;;7.70;99.90;;;;;;5090790;28;20044;-84
2023/12/09 04:45:54;;;;;;;41.65;12.43;;;7.60;99.90;;;;;;5092399;28;20040;-84
2023/12/09 04:48:21;;;;;;;46.35;13.07;;;6.90;99.90;;;;;;5089659;28;20051;-84
2023/12/09 04:50:48;;;;;;;47.95;13.02;;;6.90;99.90;;;;;;5100310;28;20044;-84
2023/12/09 04:53:14;;;;;;;46.42;13.43;;;7.10;99.90;;;;;;5086450;28;20036;-84
2023/12/09 04:55:41;;;;;;;56.70;12.88;;;6.90;99.90;;;;;;5081795;28;20055;-84
2023/12/09 04:58:08;;;;;;;53.90;13.30;;;6.80;99.90;;;;;;5085285;28;20419;-84
2023/12/09 05:00:34;;;;;;;37.63;12.43;;;6.90;99.90;;;;;;5080997;28;20124;-84
2023/12/09 05:03:01;;;;;;;53.78;13.45;;;7.10;99.90;;;;;;5069887;28;20072;-84
2023/12/09 05:05:28;;;;;;;46.00;12.32;;;6.90;99.90;;;;;;5086828;28;20135;-84
2023/12/09 05:07:54;;;;;;;32.80;12.00;;;7.50;99.90;;;;;;5100836;28;20040;-84
2023/12/09 05:10:21;;;;;;;34.88;12.23;;;7.00;99.90;;;;;;5095601;28;20090;-85
2023/12/09 05:12:48;;;;;;;42.70;11.05;;;7.00;99.90;;;;;;5124798;28;20028;-83
2023/12/09 05:15:14;;;;;;;43.03;11.65;;;6.90;99.90;;;;;;5098256;28;20078;-83
2023/12/09 05:17:41;;;;;;;45.60;12.57;;;6.80;99.90;;;;;;5103695;28;20036;-84
2023/12/09 05:20:09;;;;;;;37.17;10.52;;;6.80;99.90;;;;;;5096952;28;20067;-85
2023/12/09 05:22:37;;;;;;;30.95;10.45;;;6.80;99.90;;;;;;5102764;28;20044;-84
2023/12/09 05:25:04;;;;;;;40.90;11.45;;;6.80;99.90;;;;;;5098294;28;20069;-84
2023/12/09 05:27:31;;;;;;;40.47;11.20;;;6.80;99.90;;;;;;5121486;28;20115;-84
2023/12/09 05:29:58;;;;;;;40.08;10.85;;;6.80;99.90;;;;;;5076519;28;20069;-84
2023/12/09 05:32:24;;;;;;;38.75;10.68;;;6.80;99.90;;;;;;5102080;28;20076;-84
2023/12/09 05:34:51;;;;;;;34.95;10.23;;;6.80;99.90;;;;;;5109504;28;20040;-84
2023/12/09 05:37:18;;;;;;;29.75;10.20;;;6.90;99.90;;;;;;5106372;28;20040;-84
2023/12/09 05:39:44;;;;;;;44.58;11.00;;;7.40;99.90;;;;;;5093234;28;20503;-84
2023/12/09 05:42:11;;;;;;;41.40;9.55;;;6.90;99.90;;;;;;5089152;28;20040;-84
2023/12/09 05:44:38;;;;;;;44.30;11.35;;;7.10;99.90;;;;;;5095171;28;20087;-84
2023/12/09 05:47:04;;;;;;;38.50;10.85;;;7.60;99.90;;;;;;5098440;28;20165;-84
2023/12/09 05:49:31;;;;;;;41.35;10.52;;;6.90;99.90;;;;;;5080408;28;20032;-85
2023/12/09 05:51:57;;;;;;;39.22;11.13;;;6.90;99.90;;;;;;5098238;28;20128;-84
2023/12/09 05:54:24;;;;;;;34.83;10.82;;;6.80;99.90;;;;;;5096158;28;20542;-84
2023/12/09 05:56:51;;;;;;;38.47;10.70;;;6.90;99.90;;;;;;5093255;28;20036;-84
2023/12/09 05:59:17;;;;;;;41.85;11.65;;;7.40;99.90;;;;;;5092535;28;20043;-84
2023/12/09 06:01:44;;;;;;;46.78;11.38;;;6.80;99.90;;;;;;5092521;28;20040;-84
2023/12/09 06:04:11;;;;;;;47.75;11.05;;;7.10;99.90;;;;;;5105040;28;20075;-85
2023/12/09 06:06:38;;;;;;;51.63;10.48;;;6.80;99.90;;;;;;5109294;28;20044;-84
2023/12/09 06:09:04;;;;;;;37.58;10.75;;;6.80;99.90;;;;;;5105017;28;20043;-84
2023/12/09 06:11:31;;;;;;;41.28;10.75;;;7.40;99.90;;;;;;5103994;28;20438;-85
2023/12/09 06:13:58;;;;;;;44.47;10.68;;;6.80;99.90;;;;;;5103668;28;20397;-84
2023/12/09 06:16:24;;;;;;;37.75;10.52;;;6.80;99.90;;;;;;5092224;28;20065;-84
2023/12/09 06:18:51;;;;;;;44.80;11.10;;;7.20;99.90;;;;;;5091654;28;20131;-84
2023/12/09 06:21:21;;;;;;;33.92;9.80;;;6.80;99.90;;;;;;5102215;28;20074;-84
2023/12/09 06:23:48;;;;;;;41.67;9.77;;;6.80;99.90;;;;;;5095777;28;20051;-84
2023/12/09 06:26:15;;;;;;;38.58;10.40;;;6.80;99.90;;;;;;5091885;28;20044;-84
2023/12/09 06:28:41;;;;;;;38.55;10.23;;;6.80;99.90;;;;;;5092280;28;20043;-84
2023/12/09 06:31:10;;;;;;;32.00;11.13;;;6.90;99.90;;;;;;5092904;28;20519;-84
2023/12/09 06:33:39;;;;;;;34.20;10.93;;;7.40;99.90;;;;;;5092621;28;20037;-85
2023/12/09 06:36:07;;;;;;;38.20;10.82;;;6.80;99.90;;;;;;5092023;28;20145;-84
2023/12/09 06:38:34;;;;;;;34.95;10.20;;;6.80;99.90;;;;;;5091832;28;20483;-84
2023/12/09 06:41:01;;;;;;;29.23;9.10;;;6.80;99.90;;;;;;5091950;28;20440;-84
2023/12/09 06:43:30;;;;;;;37.28;10.50;;;6.80;99.90;;;;;;5098766;28;20033;-84
2023/12/09 06:46:00;;;;;;;34.42;10.07;;;6.80;99.90;;;;;;5082325;28;20039;-84
2023/12/09 06:48:27;;;;;;;36.10;9.20;;;6.80;99.90;;;;;;5095629;28;20413;-84
2023/12/09 06:50:53;;;;;;;38.45;9.48;;;6.80;99.90;;;;;;5095071;28;20036;-84
2023/12/09 06:53:21;;;;;;;35.08;10.63;;;7.60;99.90;;;;;;5093452;28;20040;-84
2023/12/09 06:55:48;;;;;;;27.75;9.77;;;6.90;99.90;;;;;;5091715;28;20051;-84
2023/12/09 06:58:16;;;;;;;44.08;10.48;;;6.80;99.90;;;;;;5091749;28;20037;-84
2023/12/09 07:00:43;;;;;;;30.10;9.60;;;7.50;99.90;;;;;;5091371;28;20067;-84
2023/12/09 07:03:11;;;;;;;33.63;9.90;;;6.80;99.90;;;;;;5112522;28;20060;-85
2023/12/09 07:05:37;;;;;;;29.95;9.55;;;6.80;99.90;;;;;;5104510;28;20044;-84
2023/12/09 07:08:04;;;;;;;39.15;9.93;;;6.80;99.90;;;;;;5083028;28;20118;-84
2023/12/09 07:10:31;;;;;;;35.05;9.88;;;7.00;99.90;;;;;;5087592;28;20048;-84
2023/12/09 07:12:58;;;;;;;31.13;9.70;;;6.80;99.90;;;;;;5091395;28;20037;-84
2023/12/09 07:15:24;;;;;;;32.70;9.45;;;6.80;99.90;;;;;;5087575;28;20041;-84
2023/12/09 07:17:51;;;;;;;34.13;9.13;;;6.70;99.90;;;;;;5090579;28;20040;-84
2023/12/09 07:20:18;;;;;;;36.20;10.23;;;6.80;99.90;;;;;;5090772;28;20037;-84
2023/12/09 07:22:44;;;;;;;33.13;9.80;;;7.50;99.90;;;;;;5102584;28;20173;-84
2023/12/09 07:25:11;;;;;;;31.60;9.07;;;6.70;99.90;;;;;;5106473;28;20093;-84
2023/12/09 07:27:38;;;;;;;28.23;8.57;;;6.70;99.90;;;;;;5107382;28;20040;-84
2023/12/09 07:30:05;;;;;;;37.30;8.57;;;6.90;99.90;;;;;;5103800;28;20720;-85
2023/12/09 07:32:32;;;;;;;29.48;8.95;;;6.70;99.90;;;;;;5089892;28;20120;-85
2023/12/09 07:34:58;;;;;;;27.75;8.60;;;6.90;99.90;;;;;;5090301;28;20158;-84
2023/12/09 07:37:25;;;;;;;33.80;9.07;;;6.90;99.90;;;;;;5080510;28;20037;-85
2023/12/09 07:39:52;;;;;;;32.28;8.77;;;6.70;99.90;;;;;;5093507;28;20040;-85
2023/12/09 07:42:18;;;;;;;40.38;8.98;;;6.70;99.90;;;;;;5100307;28;20130;-84
2023/12/09 07:44:45;;;;;;;32.65;8.60;;;6.60;99.90;;;;;;5094357;28;20051;-85
2023/12/09 07:47:12;;;;;;;26.52;7.80;;;6.90;99.90;;;;;;5089646;28;20116;-85
2023/12/09 07:49:38;;;;;;;28.05;8.15;;;7.50;99.90;;;;;;5084322;28;20659;-84
2023/12/09 07:52:05;;;;;;;24.75;7.80;;;7.50;99.90;;;;;;5114196;28;20040;-84
2023/12/09 07:54:32;;;;;;;30.42;8.55;;;6.60;99.90;;;;;;5091761;28;20039;-85
2023/12/09 07:56:59;;;;;;;35.20;8.05;;;7.50;99.90;;;;;;5092383;28;20115;-85
2023/12/09 07:59:25;;;;;;;28.13;8.32;;;6.60;99.90;;;;;;5092807;28;20040;-84
2023/12/09 08:01:52;;;;;;;30.55;8.07;;;6.60;99.90;;;;;;5090627;28;20452;-84
2023/12/09 08:04:18;;;;;;;31.00;7.10;;;7.00;99.90;;;;;;5098922;28;20102;-84
2023/12/09 08:06:45;;;;;;;29.55;7.70;;;6.90;99.90;;;;;;5089964;28;20049;-85
2023/12/09 08:09:12;;;;;;;26.92;7.20;;;7.10;99.90;;;;;;5090213;28;20075;-86
2023/12/09 08:11:40;;;;;;;26.27;7.40;;;6.70;99.90;;;;;;5087206;28;20099;-85
2023/12/09 08:14:07;;;;;;;28.60;7.70;;;7.20;99.90;;;;;;5104149;28;20037;-84
2023/12/09 08:16:33;;;;;;;21.88;7.57;;;6.70;99.90;;;;;;5096079;28;20127;-84
2023/12/09 08:19:00;;;;;;;33.85;8.27;;;6.70;99.90;;;;;;5113772;28;20059;-85
2023/12/09 08:21:26;;;;;;;25.52;7.13;;;7.80;99.90;;;;;;5102363;28;20062;-84
2023/12/09 08:23:54;;;;;;;28.42;7.43;;;7.40;99.90;;;;;;5083541;28;20082;-84
2023/12/09 08:26:21;;;;;;;29.13;7.25;;;6.80;99.90;;;;;;5091782;28;20086;-84
2023/12/09 08:28:48;;;;;;;25.73;6.97;;;6.80;99.90;;;;;;5096775;28;20127;-84
2023/12/09 08:31:15;;;;;;;30.67;7.38;;;7.00;99.90;;;;;;5100522;28;20120;-83
2023/12/09 08:33:42;;;;;;;32.38;7.03;;;7.60;99.90;;;;;;5087431;28;20459;-84
2023/12/09 08:36:09;;;;;;;26.15;6.63;;;6.80;99.90;;;;;;5096829;28;20416;-84
2023/12/09 08:38:36;;;;;;;31.42;6.55;;;6.80;99.90;;;;;;5114730;28;20056;-84
2023/12/09 08:41:02;;;;;;;31.85;6.40;;;6.80;99.90;;;;;;5073087;28;20530;-84
2023/12/09 08:43:29;;;;;;;23.48;6.07;;;6.90;99.90;;;;;;5072555;28;20413;-84
2023/12/09 08:45:56;;;;;;;25.00;6.45;;;6.90;99.90;;;;;;5088302;28;20098;-84
2023/12/09 08:48:24;;;;;;;25.40;5.82;;;6.90;99.90;;;;;;5094790;28;20044;-84
2023/12/09 08:50:51;;;;;;;18.27;5.22;;;6.90;99.90;;;;;;5095826;28;20037;-84
2023/12/09 08:53:17;;;;;;;21.15;5.53;;;7.40;99.90;;;;;;5069303;28;20055;-85
2023/12/09 08:55:44;;;;;;;24.98;6.07;;;6.90;99.90;;;;;;5083865;28;20036;-84
2023/12/09 08:58:11;;;;;;;19.60;5.90;;;7.70;99.90;;;;;;5097207;28;20505;-84
2023/12/09 09:00:37;;;;;;;19.50;5.38;;;6.90;99.90;;;;;;5094520;28;20041;-84
2023/12/09 09:03:04;;;;;;;18.20;5.45;;;7.40;99.90;;;;;;5089192;28;20408;-84
2023/12/09 09:05:31;;;;;;;17.90;4.47;;;6.90;99.90;;;;;;5105968;28;20553;-84
2023/12/09 09:07:57;;;;;;;18.70;4.55;;;6.90;99.90;;;;;;5089249;28;20055;-84
2023/12/09 09:10:24;;;;;;;25.90;4.95;;;6.90;99.90;;;;;;5098969;28;20381;-84
2023/12/09 09:12:50;;;;;;;17.13;4.57;;;6.80;99.90;;;;;;5082329;28;20101;-84
2023/12/09 09:15:17;;;;;;;21.80;4.90;;;6.90;99.90;;;;;;5082796;28;20041;-84
2023/12/09 09:17:47;;;;;;;21.48;4.78;;;6.80;99.90;;;;;;5089118;28;20400;-83
2023/12/09 09:20:14;;;;;;;17.75;4.32;;;6.80;99.90;;;;;;5089129;28;20131;-84
2023/12/09 09:22:41;;;;;;;19.17;3.70;;;6.80;99.90;;;;;;5088718;28;20127;-84
2023/12/09 09:25:09;;;;;;;18.88;3.80;;;6.80;99.90;;;;;;5104401;28;20036;-85
2023/12/09 09:27:35;;;;;;;21.77;3.92;;;6.70;99.90;;;;;;5083547;28;20048;-85
2023/12/09 09:30:03;;;;;;;25.15;4.10;;;6.80;99.90;;;;;;5096023;28;22454;-85
2023/12/09 09:32:30;;;;;;;18.25;4.05;;;6.70;99.90;;;;;;5095736;28;20036;-85
2023/12/09 09:34:57;;;;;;;19.73;4.22;;;6.70;99.90;;;;;;5094812;28;20033;-85
2023/12/09 09:37:24;;;;;;;19.23;4.00;;;6.70;99.90;;;;;;5074204;28;20033;-85
2023/12/09 09:39:50;;;;;;;15.63;3.65;;;6.80;99.90;;;;;;5097970;28;20048;-85
2023/12/09 09:42:53;;;;;;;16.98;3.58;;;6.70;99.90;;;;;;5097633;28;20400;-85
2023/12/09 09:45:25;;;;;;;14.57;3.65;;;6.60;99.90;;;;;;5093944;28;20056;-83
2023/12/09 09:47:55;;;;;;;21.33;3.85;;;6.60;99.90;;;;;;5089362;28;20037;-85
2023/12/09 09:50:24;;;;;;;20.23;3.58;;;6.60;99.90;;;;;;5101265;28;20114;-84
2023/12/09 09:52:52;;;;;;;20.77;3.92;;;6.60;99.90;;;;;;5114408;28;20040;-84
2023/12/09 09:55:21;;;;;;;15.82;3.80;;;7.40;99.90;;;;;;5110662;28;20032;-86
2023/12/09 09:57:48;;;;;;;14.38;3.60;;;6.60;99.90;;;;;;5099092;28;20041;-85
2023/12/09 10:00:17;;;;;;;14.38;3.00;;;7.00;99.90;;;;;;5105728;28;20133;-86
2023/12/09 10:02:46;;;;;;;15.30;3.45;;;6.60;99.90;;;;;;5106140;28;20040;-85
2023/12/09 10:05:17;;;;;;;14.85;3.50;;;6.70;99.90;;;;;;5086806;28;20515;-85
2023/12/09 10:07:45;;;;;;;20.65;3.70;;;6.70;99.90;;;;;;5082007;28;20052;-85
2023/12/09 10:10:14;;;;;;;12.15;3.05;;;6.80;99.90;;;;;;5074955;28;20064;-86
2023/12/09 10:12:42;;;;;;;13.65;3.45;;;6.80;99.90;;;;;;5090689;28;20033;-84
2023/12/09 10:15:09;;;;;;;20.27;3.72;;;6.80;99.90;;;;;;5105495;28;20071;-85
2023/12/09 10:17:36;;;;;;;9.68;4.00;;;6.80;99.90;;;;;;5092821;28;20082;-85
2023/12/09 10:20:05;;;;;;;14.27;3.55;;;7.60;99.90;;;;;;5092070;28;20040;-85
2023/12/09 10:22:34;;;;;;;15.68;3.40;;;6.90;99.90;;;;;;5091766;28;20645;-84
2023/12/09 10:25:00;;;;;;;21.55;4.97;;;7.00;99.90;;;;;;5091913;28;20127;-84
2023/12/09 10:27:27;;;;;;;15.13;3.30;;;7.00;99.90;;;;;;5108424;28;20111;-84
2023/12/09 10:29:58;;;;;;;14.55;3.80;;;7.00;99.90;;;;;;5091312;28;20036;-86
2023/12/09 10:32:26;;;;;;;14.15;3.25;;;7.00;99.90;;;;;;5100169;28;20114;-85
2023/12/09 10:34:53;;;;;;;13.13;3.33;;;7.10;99.90;;;;;;5093519;28;20040;-86
2023/12/09 10:37:20;;;;;;;11.50;3.10;;;7.10;99.90;;;;;;5097060;28;20399;-84
2023/12/09 10:39:49;;;;;;;12.52;3.78;;;7.20;99.90;;;;;;5089785;28;20044;-86
2023/12/09 10:42:16;;;;;;;14.45;3.88;;;7.10;99.90;;;;;;5100041;28;20381;-87
2023/12/09 10:44:43;;;;;;;13.20;3.03;;;7.10;99.90;;;;;;5100137;28;20090;-85
2023/12/09 10:47:09;;;;;;;14.15;3.83;;;7.20;99.90;;;;;;5096856;28;20570;-85
2023/12/09 10:49:36;;;;;;;21.65;3.33;;;7.20;99.90;;;;;;5085246;28;20132;-85
2023/12/09 10:52:04;;;;;;;13.73;4.40;;;7.80;99.90;;;;;;5083931;28;20033;-84
2023/12/09 10:54:30;;;;;;;11.43;3.00;;;7.30;99.90;;;;;;5109672;28;20081;-85
2023/12/09 10:56:58;;;;;;;18.25;3.38;;;7.80;99.90;;;;;;5080378;28;20477;-86
2023/12/09 10:59:27;;;;;;;13.73;3.55;;;7.30;99.90;;;;;;5071739;28;20045;-85
2023/12/09 11:01:54;;;;;;;12.90;3.58;;;8.50;99.90;;;;;;5095987;28;20032;-86
2023/12/09 11:04:21;;;;;;;12.20;3.10;;;7.40;99.90;;;;;;5100380;28;20787;-85
2023/12/09 11:06:50;;;;;;;13.88;3.35;;;7.80;99.90;;;;;;5089961;28;20133;-85
2023/12/09 11:09:18;;;;;;;9.15;3.10;;;7.50;99.90;;;;;;5100866;28;20123;-85
2023/12/09 11:11:45;;;;;;;12.40;2.97;;;7.80;99.90;;;;;;5110213;28;20390;-86
2023/12/09 11:14:12;;;;;;;9.65;2.78;;;7.70;99.90;;;;;;5091406;28;20044;-86
2023/12/09 11:16:43;;;;;;;13.00;3.20;;;7.90;99.90;;;;;;5091014;28;20508;-85
2023/12/09 11:19:15;;;;;;;21.88;3.10;;;8.40;99.90;;;;;;5090552;28;20066;-85
2023/12/09 11:21:46;;;;;;;12.88;2.80;;;8.50;99.90;;;;;;5098323;28;20386;-84
2023/12/09 11:24:14;;;;;;;17.85;3.47;;;7.70;99.90;;;;;;5088971;28;20139;-85
2023/12/09 11:26:45;;;;;;;9.25;2.70;;;7.70;99.90;;;;;;5082903;28;20049;-86
2023/12/09 11:29:14;;;;;;;12.25;3.05;;;7.70;99.90;;;;;;5098482;28;20064;-83
2023/12/09 11:31:46;;;;;;;11.45;2.67;;;7.70;99.90;;;;;;5087283;28;20037;-83
2023/12/09 11:34:15;;;;;;;8.05;2.78;;;7.70;99.90;;;;;;5086750;28;20032;-84
2023/12/09 11:36:43;;;;;;;14.82;3.50;;;7.80;99.90;;;;;;5083455;28;20573;-84
2023/12/09 11:39:17;;;;;;;12.07;2.75;;;7.90;99.90;;;;;;5083448;28;20086;-83
2023/12/09 11:41:45;;;;;;;9.55;3.05;;;7.70;99.90;;;;;;5087238;28;20041;-84
2023/12/09 11:44:14;;;;;;;7.88;2.95;;;7.70;99.90;;;;;;5091818;28;20488;-84
2023/12/09 11:46:41;;;;;;;10.88;3.03;;;8.60;99.90;;;;;;5092931;28;20770;-83
2023/12/09 11:49:08;;;;;;;11.13;3.72;;;7.60;99.90;;;;;;5090349;28;20079;-84
2023/12/09 11:51:37;;;;;;;9.13;2.95;;;8.00;99.90;;;;;;5092677;28;20060;-83
2023/12/09 11:54:07;;;;;;;7.40;2.70;;;7.60;99.90;;;;;;5108703;28;20082;-93
2023/12/09 11:56:34;;;;;;;14.43;3.70;;;7.50;99.90;;;;;;5094428;28;20048;-96
2023/12/09 11:59:01;;;;;;;13.63;3.30;;;8.30;99.90;;;;;;5102457;28;20123;-95
2023/12/09 12:01:29;;;;;;;15.32;3.40;;;7.70;99.90;;;;;;5091843;28;20124;-95
2023/12/09 12:03:55;;;;;;;9.82;3.53;;;7.90;99.90;;;;;;5085316;28;20032;-96
2023/12/09 12:06:23;;;;;;;10.23;3.55;;;7.40;99.90;;;;;;5079459;28;20064;-92
2023/12/09 12:08:52;;;;;;;12.43;3.90;;;7.40;99.90;;;;;;5083752;28;20040;-96
2023/12/09 12:11:21;;;;;;;12.70;2.95;;;7.40;99.90;;;;;;5085812;28;20033;-95
2023/12/09 12:13:48;;;;;;;11.65;3.20;;;7.50;99.90;;;;;;5093933;28;20032;-95
2023/12/09 12:16:15;;;;;;;14.23;3.15;;;7.50;99.90;;;;;;5117061;28;20047;-94
2023/12/09 12:18:43;;;;;;;15.32;2.72;;;7.50;99.90;;;;;;5119846;28;20044;-94
2023/12/09 12:21:10;;;;;;;12.65;2.78;;;7.60;99.90;;;;;;5086212;28;20040;-95
2023/12/09 12:23:38;;;;;;;10.88;2.58;;;7.50;99.90;;;;;;5091730;28;20046;-94
2023/12/09 12:26:05;;;;;;;10.15;2.95;;;7.50;99.90;;;;;;5091051;28;20039;-91
2023/12/09 12:28:32;;;;;;;8.32;2.28;;;7.50;99.90;;;;;;5091748;28;20040;-94
2023/12/09 12:30:59;;;;;;;9.15;2.50;;;7.50;99.90;;;;;;5099774;28;20040;-95
2023/12/09 12:33:30;;;;;;;8.20;2.40;;;7.60;99.90;;;;;;5085905;28;20033;-94
2023/12/09 12:35:58;;;;;;;10.43;2.38;;;7.50;99.90;;;;;;5080644;28;20028;-94
2023/12/09 12:38:26;;;;;;;8.80;2.45;;;7.50;99.90;;;;;;5094204;28;20060;-96
2023/12/09 12:40:54;;;;;;;5.90;2.13;;;7.50;99.90;;;;;;5088069;28;20070;-83
2023/12/09 12:43:22;;;;;;;8.25;1.98;;;7.50;99.90;;;;;;5110073;28;20032;-96